»·PEaware :: WAT380 KBZN-KBJC

WAT380 :: KBZN-KBJC

FLIGHT INFORMATION

Flight Status: Arrived
Operator:
Walker Air Transport
More flights by this operator :: More flights under this callsign
Pilot: Spencer M. (27733)
Aircraft: BEECH AIRCRAFT PREMIER
(PRM1)
More flights by this aircraft type
Origin: KBZN Gallatin
United States
Destination: KBJC Rocky Mountain Metro Airport
United States
More flights between these airports :: More routes between these airports
Route: BOBKT4 BOY BANNA PINNR3
File this flight plan on PilotEdge
Remarks:
Altitude:
(Current/Filed)
31,000ft
Speed:
(Current/Filed)
400kts
Departed: 01-Nov-21 12:37 PM
Arrived: 01-Nov-21 01:52 PM
Distance/Time
Traveled:
441nm/1:15
Distance/Time
To Go:
Arrived

Flight Plot

Page will automatically refresh every two minutes.

Flight plan parsing failed; only flown route is shown


Map Options




Map Legend


Flown Route
Filed Route
Departure Airport
Arrival Airport
Navaid (VOR, NDB)
Fix

Horizontal Profiles

Position Reports

Time Latitude Longitude Heading Altitude Ground
Speed
01-Nov-21 12:21 45.774379 -111.153596 318 4463ft 0kts
01-Nov-21 12:22 45.774379 -111.153596 318 4463ft 0kts
01-Nov-21 12:23 45.774379 -111.153596 318 4463ft 0kts
01-Nov-21 12:24 45.774379 -111.153596 318 4463ft 0kts
01-Nov-21 12:25 45.774379 -111.153596 318 4463ft 0kts
01-Nov-21 12:26 45.774379 -111.153596 318 4463ft 0kts
01-Nov-21 12:27 45.774379 -111.153596 318 4463ft 0kts
01-Nov-21 12:28 45.774379 -111.153596 318 4463ft 0kts
01-Nov-21 12:29 45.774379 -111.153596 318 4463ft 0kts
01-Nov-21 12:30 45.774379 -111.153596 318 4463ft 0kts
01-Nov-21 12:31 45.775505 -111.153123 335 4461ft 7kts
01-Nov-21 12:32 45.777564 -111.155947 316 4457ft 13kts
01-Nov-21 12:33 45.780817 -111.160502 315 4451ft 19kts
01-Nov-21 12:34 45.784399 -111.165469 315 4441ft 14kts
01-Nov-21 12:35 45.786788 -111.168201 34 4435ft 8kts
01-Nov-21 12:36 45.786528 -111.164299 136 4436ft 51kts
01-Nov-21 12:37 45.757324 -111.122885 134 5560ft 200kts
01-Nov-21 12:38 45.711246 -111.050493 131 7274ft 275kts
01-Nov-21 12:39 45.659923 -110.968427 121 9953ft 283kts
01-Nov-21 12:40 45.649831 -110.849954 96 11383ft 322kts
01-Nov-21 12:41 45.596841 -110.753544 147 13201ft 325kts
01-Nov-21 12:42 45.520162 -110.682459 147 14776ft 335kts
01-Nov-21 12:43 45.441353 -110.609376 147 15981ft 343kts
01-Nov-21 12:44 45.360419 -110.534390 146 16919ft 348kts
01-Nov-21 12:45 45.278446 -110.458702 146 18167ft 356kts
01-Nov-21 12:46 45.194564 -110.381524 146 19302ft 363kts
01-Nov-21 12:47 45.109013 -110.303102 147 20319ft 370kts
01-Nov-21 12:48 45.022068 -110.223690 147 21198ft 376kts
01-Nov-21 12:49 44.938493 -110.144446 141 22962ft 359kts
01-Nov-21 12:50 44.863493 -110.048827 137 23983ft 364kts
01-Nov-21 12:51 44.788008 -109.951368 137 24796ft 373kts
01-Nov-21 12:52 44.710791 -109.852169 138 25668ft 378kts
01-Nov-21 12:53 44.632568 -109.752071 138 26424ft 384kts
01-Nov-21 12:54 44.553012 -109.650661 138 27013ft 392kts
01-Nov-21 12:55 44.470656 -109.546092 138 27021ft 410kts
01-Nov-21 12:56 44.384213 -109.436800 138 27000ft 423kts
01-Nov-21 12:57 44.296284 -109.325983 139 26988ft 430kts
01-Nov-21 12:58 44.206919 -109.213878 139 26990ft 435kts
01-Nov-21 12:59 44.116474 -109.101136 139 26997ft 437kts
01-Nov-21 13:00 44.025750 -108.988292 139 27015ft 440kts
01-Nov-21 13:01 43.934345 -108.875108 139 27020ft 443kts
01-Nov-21 13:02 43.842083 -108.761418 139 27018ft 445kts
01-Nov-21 13:03 43.749758 -108.648112 140 27300ft 441kts
01-Nov-21 13:04 43.657367 -108.535234 139 27304ft 445kts
01-Nov-21 13:05 43.564341 -108.422050 140 27305ft 449kts
01-Nov-21 13:06 43.469816 -108.309085 143 27300ft 449kts
01-Nov-21 13:07 43.367575 -108.210754 149 27301ft 449kts
01-Nov-21 13:08 43.263632 -108.116011 149 27306ft 451kts
01-Nov-21 13:09 43.158792 -108.020373 149 27310ft 452kts
01-Nov-21 13:10 43.053833 -107.924926 149 27314ft 455kts
01-Nov-21 13:11 42.948341 -107.829386 150 27315ft 459kts
01-Nov-21 13:12 42.841516 -107.733048 150 27310ft 461kts
01-Nov-21 13:13 42.734514 -107.636959 150 27313ft 463kts
01-Nov-21 13:14 42.626413 -107.540291 150 27302ft 466kts
01-Nov-21 13:15 42.518136 -107.443868 150 27288ft 468kts
01-Nov-21 13:16 42.409087 -107.347163 151 27290ft 469kts
01-Nov-21 13:17 42.300130 -107.250970 151 27281ft 468kts
01-Nov-21 13:18 42.191209 -107.155196 151 27283ft 468kts
01-Nov-21 13:19 42.082631 -107.060118 151 27285ft 467kts
01-Nov-21 13:20 41.973709 -106.965149 151 27268ft 467kts
01-Nov-21 13:21 41.864313 -106.870168 151 27241ft 468kts
01-Nov-21 13:22 41.755151 -106.775765 151 27229ft 467kts
01-Nov-21 13:23 41.646298 -106.682014 151 27231ft 466kts
01-Nov-21 13:24 41.537225 -106.588465 151 27232ft 465kts
01-Nov-21 13:26 41.428314 -106.495432 151 27234ft 465kts
01-Nov-21 13:27 41.319116 -106.402532 151 27262ft 465kts
01-Nov-21 13:28 41.210434 -106.310419 152 27262ft 459kts
01-Nov-21 13:29 41.110366 -106.208663 132 27263ft 455kts
01-Nov-21 13:30 41.043391 -106.067971 122 27265ft 446kts
01-Nov-21 13:31 40.981158 -105.929726 122 26242ft 431kts
01-Nov-21 13:32 40.921399 -105.798150 122 23974ft 406kts
01-Nov-21 13:33 40.864112 -105.672622 122 21763ft 388kts
01-Nov-21 13:34 40.809069 -105.553008 122 19662ft 375kts
01-Nov-21 13:35 40.755662 -105.437520 122 17676ft 364kts
01-Nov-21 13:36 40.704691 -105.327632 123 15785ft 339kts
01-Nov-21 13:37 40.655801 -105.222569 122 14075ft 334kts
01-Nov-21 13:38 40.609164 -105.122498 122 12320ft 300kts
01-Nov-21 13:39 40.564145 -105.036637 149 10938ft 281kts
01-Nov-21 13:40 40.491269 -105.026164 182 10347ft 263kts
01-Nov-21 13:41 40.418704 -105.026208 181 9664ft 250kts
01-Nov-21 13:42 40.350554 -105.025625 180 9008ft 242kts
01-Nov-21 13:43 40.279243 -105.025015 180 9015ft 292kts
01-Nov-21 13:44 40.208740 -105.026206 185 8999ft 231kts
01-Nov-21 13:45 40.145535 -105.034713 196 8998ft 225kts
01-Nov-21 13:46 40.099046 -105.085376 227 8253ft 214kts
01-Nov-21 13:47 40.061685 -105.137959 227 8101ft 188kts
01-Nov-21 13:48 40.023486 -105.187672 207 7921ft 200kts
01-Nov-21 13:49 39.975416 -105.180793 163 7102ft 152kts
01-Nov-21 13:50 39.940980 -105.160274 143 6396ft 135kts
01-Nov-21 13:51 39.915041 -105.127866 124 5660ft 125kts
01-Nov-21 13:51 39.906841 -105.111797 104 5595ft 26kts
01-Nov-21 13:53 39.904867 -105.106009 123 5568ft 14kts
01-Nov-21 13:54 39.905815 -105.105204 262 5567ft 4kts

Navigation Log

Ident Type
Flight plan parsing failed, navigation log unavailable